createdAt,value
2023-01-26T00:00:30.929Z,455.00
2023-01-26T00:01:30.919Z,454.00
2023-01-26T00:02:31.013Z,452.00
2023-01-26T00:03:32.747Z,452.00
2023-01-26T00:04:30.970Z,454.00
2023-01-26T00:05:30.950Z,451.00
2023-01-26T00:06:30.948Z,452.00
2023-01-26T00:07:30.993Z,453.00
2023-01-26T00:08:31.004Z,451.00
2023-01-26T00:09:30.996Z,452.00
2023-01-26T00:10:31.024Z,453.00
2023-01-26T00:11:31.037Z,456.00
2023-01-26T00:12:31.022Z,457.00
2023-01-26T00:13:31.057Z,456.00
2023-01-26T00:14:31.050Z,459.00
2023-01-26T00:15:31.068Z,457.00
2023-01-26T00:16:31.129Z,453.00
2023-01-26T00:17:31.113Z,450.00
2023-01-26T00:18:31.120Z,451.00
2023-01-26T00:19:31.124Z,448.00
2023-01-26T00:20:31.124Z,449.00
2023-01-26T00:21:31.232Z,448.00
2023-01-26T00:22:31.150Z,447.00
2023-01-26T00:23:31.198Z,447.00
2023-01-26T00:24:31.210Z,446.00
2023-01-26T00:25:31.218Z,446.00
2023-01-26T00:26:31.227Z,444.00
2023-01-26T00:27:31.241Z,442.00
2023-01-26T00:28:31.294Z,445.00
2023-01-26T00:29:31.272Z,445.00
2023-01-26T00:30:31.368Z,445.00
2023-01-26T00:31:31.370Z,443.00
2023-01-26T00:32:31.332Z,446.00
2023-01-26T00:33:31.403Z,448.00
2023-01-26T00:34:31.373Z,444.00
2023-01-26T00:35:31.392Z,444.00
2023-01-26T00:36:31.400Z,444.00
2023-01-26T00:37:31.450Z,443.00
2023-01-26T01:39:32.162Z,445.00
2023-01-26T01:40:32.143Z,445.00
2023-01-26T01:41:32.181Z,444.00
2023-01-26T01:42:32.189Z,443.00
2023-01-26T01:43:32.199Z,443.00
2023-01-26T01:44:32.211Z,441.00
2023-01-26T01:45:32.237Z,440.00
2023-01-26T01:46:32.301Z,439.00
2023-01-26T01:47:32.255Z,438.00
2023-01-26T01:48:32.264Z,439.00
2023-01-26T01:49:32.305Z,438.00
2023-01-26T01:50:32.289Z,438.00
2023-01-26T01:51:32.299Z,440.00
2023-01-26T01:52:32.320Z,441.00
2023-01-26T01:53:32.357Z,440.00
2023-01-26T01:54:32.364Z,441.00
2023-01-26T02:52:33.132Z,428.00
2023-01-26T02:53:33.149Z,427.00
2023-01-26T02:54:33.175Z,428.00
2023-01-26T02:55:33.197Z,426.00
2023-01-26T02:56:33.213Z,425.00
2023-01-26T02:57:33.226Z,426.00
2023-01-26T02:58:33.238Z,423.00
2023-01-26T02:59:33.251Z,422.00
2023-01-26T03:00:33.312Z,420.00
2023-01-26T03:01:33.293Z,420.00
2023-01-26T03:02:33.313Z,419.00
2023-01-26T03:03:33.309Z,419.00
2023-01-26T03:04:33.332Z,418.00
2023-01-26T03:05:33.325Z,417.00
2023-01-26T03:06:33.353Z,417.00
2023-01-26T03:07:33.366Z,416.00
2023-01-26T03:08:33.365Z,415.00
2023-01-26T03:09:33.394Z,415.00
2023-01-26T03:10:33.404Z,414.00
2023-01-26T03:11:33.422Z,413.00
2023-01-26T03:12:33.450Z,415.00
2023-01-26T03:13:33.480Z,415.00
2023-01-26T03:14:33.461Z,416.00
2023-01-26T03:15:33.494Z,416.00
2023-01-26T03:16:33.585Z,414.00
2023-01-26T03:17:33.523Z,415.00
2023-01-26T03:18:33.578Z,413.00
2023-01-26T03:19:33.598Z,412.00
2023-01-26T03:20:33.592Z,412.00
2023-01-26T03:21:33.624Z,412.00
2023-01-26T03:22:33.656Z,413.00
2023-01-26T03:23:33.639Z,411.00
2023-01-26T03:24:33.673Z,412.00
2023-01-26T03:25:33.694Z,413.00
2023-01-26T03:26:33.748Z,413.00
2023-01-26T03:27:33.740Z,414.00
2023-01-26T03:28:33.761Z,414.00
2023-01-26T03:29:33.781Z,414.00
2023-01-26T03:30:33.852Z,414.00
2023-01-26T03:31:33.880Z,416.00
2023-01-26T03:32:33.854Z,417.00
2023-01-26T03:33:33.876Z,418.00
2023-01-26T03:34:33.866Z,420.00
2023-01-26T03:35:33.876Z,419.00
2023-01-26T03:36:33.897Z,421.00
2023-01-26T03:37:33.912Z,419.00
2023-01-26T03:38:33.911Z,420.00
2023-01-26T03:39:33.955Z,418.00
2023-01-26T03:40:33.975Z,418.00
2023-01-26T03:41:34.002Z,416.00
2023-01-26T03:42:34.025Z,417.00
2023-01-26T03:43:34.024Z,416.00
2023-01-26T03:44:34.090Z,417.00
2023-01-26T03:45:34.073Z,415.00
2023-01-26T03:46:34.120Z,415.00
2023-01-26T03:47:34.104Z,414.00
2023-01-26T03:48:34.134Z,414.00
2023-01-26T03:49:34.176Z,415.00
2023-01-26T03:50:34.207Z,415.00
2023-01-26T03:51:34.239Z,415.00
2023-01-26T03:52:34.237Z,415.00
2023-01-26T03:53:34.253Z,417.00
2023-01-26T03:54:34.268Z,419.00
2023-01-26T03:55:34.273Z,419.00
2023-01-26T03:56:34.335Z,419.00
2023-01-26T06:55:38.491Z,703.00
2023-01-26T06:56:38.517Z,726.00
2023-01-26T06:57:38.552Z,767.00
2023-01-26T06:58:38.570Z,751.00
2023-01-26T06:59:38.592Z,731.00
2023-01-26T07:00:38.610Z,721.00
2023-01-26T07:01:38.746Z,723.00
2023-01-26T07:02:38.726Z,723.00
2023-01-26T07:03:38.693Z,715.00
2023-01-26T07:04:38.712Z,702.00
2023-01-26T07:05:38.733Z,682.00
2023-01-26T07:06:38.765Z,667.00
2023-01-26T07:07:38.817Z,662.00
2023-01-26T07:08:38.833Z,649.00
2023-01-26T07:09:38.839Z,660.00
2023-01-26T07:10:38.850Z,644.00
2023-01-26T07:11:38.952Z,630.00
2023-01-26T07:12:38.903Z,610.00
2023-01-26T07:13:38.918Z,597.00
2023-01-26T07:14:38.964Z,602.00
2023-01-26T07:15:38.986Z,601.00
2023-01-26T07:16:39.034Z,602.00
2023-01-26T07:17:39.054Z,604.00
2023-01-26T07:18:39.046Z,616.00
2023-01-26T07:19:39.256Z,609.00
2023-01-26T07:20:39.099Z,601.00
2023-01-26T07:21:39.116Z,603.00
2023-01-26T07:22:39.128Z,598.00
2023-01-26T07:23:39.143Z,597.00
2023-01-26T07:24:39.150Z,593.00
2023-01-26T07:25:39.229Z,588.00
2023-01-26T07:26:39.232Z,591.00
2023-01-26T07:27:39.211Z,589.00
2023-01-26T07:28:40.272Z,593.00
2023-01-26T07:29:39.270Z,590.00
2023-01-26T07:30:39.375Z,593.00
2023-01-26T07:31:39.398Z,602.00
2023-01-26T07:32:39.470Z,607.00
2023-01-26T07:33:39.516Z,603.00
2023-01-26T07:34:39.352Z,602.00
2023-01-26T07:35:40.317Z,607.00
2023-01-26T07:36:39.416Z,610.00
2023-01-26T07:37:39.437Z,607.00
2023-01-26T07:38:39.452Z,613.00
2023-01-26T07:39:39.436Z,616.00
2023-01-26T07:40:39.496Z,622.00
2023-01-26T07:41:39.517Z,658.00
2023-01-26T07:42:39.505Z,686.00
2023-01-26T07:43:39.662Z,695.00
2023-01-26T07:44:39.577Z,740.00
2023-01-26T07:45:39.580Z,796.00
2023-01-26T07:46:39.685Z,812.00
2023-01-26T07:47:39.615Z,835.00
2023-01-26T07:48:39.668Z,876.00
2023-01-26T07:49:39.656Z,918.00
2023-01-26T07:50:39.638Z,937.00
2023-01-26T07:51:39.694Z,972.00
2023-01-26T07:52:39.725Z,1003.00
2023-01-26T07:53:39.732Z,1014.00
2023-01-26T07:54:39.709Z,1044.00
2023-01-26T07:55:39.720Z,1075.00
2023-01-26T07:56:39.729Z,1091.00
2023-01-26T07:57:39.749Z,1108.00
2023-01-26T07:58:39.839Z,1126.00
2023-01-26T07:59:39.987Z,1141.00
2023-01-26T08:00:40.209Z,1163.00
2023-01-26T08:01:40.102Z,1185.00
2023-01-26T08:02:40.134Z,1204.00
2023-01-26T08:03:40.177Z,1235.00
2023-01-26T08:04:40.318Z,1257.00
2023-01-26T08:05:40.292Z,1267.00
2023-01-26T08:06:40.350Z,1290.00
2023-01-26T08:07:40.430Z,1315.00
2023-01-26T08:08:40.490Z,1324.00
2023-01-26T08:09:40.548Z,1334.00
2023-01-26T08:10:40.656Z,1345.00
2023-01-26T08:11:40.729Z,1377.00
2023-01-26T08:12:41.360Z,1396.00
2023-01-26T08:13:40.783Z,1412.00
2023-01-26T08:14:46.871Z,1421.00
2023-01-26T08:16:40.821Z,1443.00
2023-01-26T08:18:40.776Z,1467.00
2023-01-26T08:19:40.854Z,1496.00
2023-01-26T08:21:40.887Z,1514.00
2023-01-26T08:22:40.896Z,1529.00
2023-01-26T08:23:40.851Z,1539.00
2023-01-26T08:24:40.861Z,1570.00
2023-01-26T08:25:40.811Z,1589.00
2023-01-26T08:26:40.767Z,1591.00
2023-01-26T08:27:40.813Z,1596.00
2023-01-26T09:54:43.225Z,918.00
2023-01-26T09:55:43.237Z,818.00
2023-01-26T09:56:43.262Z,745.00
2023-01-26T09:57:43.291Z,653.00
2023-01-26T09:58:43.263Z,636.00
2023-01-26T09:59:43.308Z,588.00
2023-01-26T10:00:43.332Z,569.00
2023-01-26T10:01:43.396Z,552.00
2023-01-26T10:02:43.391Z,540.00
2023-01-26T10:03:43.416Z,531.00
2023-01-26T10:04:43.400Z,526.00
2023-01-26T10:05:43.413Z,517.00
2023-01-26T10:06:43.514Z,509.00
2023-01-26T10:07:43.523Z,514.00
2023-01-26T10:08:43.532Z,521.00
2023-01-26T10:09:45.910Z,586.00
2023-01-26T10:10:43.615Z,573.00
2023-01-26T10:11:43.652Z,532.00
2023-01-26T10:12:43.704Z,565.00
2023-01-26T10:13:43.718Z,544.00
2023-01-26T10:14:43.767Z,490.00
2023-01-26T10:15:43.781Z,484.00
2023-01-26T10:16:43.855Z,476.00
2023-01-26T10:17:43.937Z,509.00
2023-01-26T10:18:43.908Z,509.00
2023-01-26T10:19:43.941Z,512.00
2023-01-26T10:20:44.042Z,506.00
2023-01-26T10:21:44.054Z,511.00
2023-01-26T10:23:44.081Z,577.00
2023-01-26T10:24:44.151Z,572.00
2023-01-26T10:25:44.207Z,573.00
2023-01-26T10:26:44.210Z,665.00
2023-01-26T10:27:44.269Z,674.00
2023-01-26T10:33:44.605Z,827.00
2023-01-26T12:16:46.895Z,849.00
2023-01-26T12:17:46.764Z,812.00
2023-01-26T12:18:55.836Z,791.00
2023-01-26T12:19:47.844Z,776.00
2023-01-26T12:20:46.861Z,774.00
2023-01-26T12:21:46.932Z,771.00
2023-01-26T12:22:46.880Z,769.00
2023-01-26T12:23:46.936Z,768.00
2023-01-26T12:25:16.003Z,768.00
2023-01-26T12:25:47.938Z,848.00
2023-01-26T12:26:46.907Z,889.00
2023-01-26T12:27:46.959Z,877.00
2023-01-26T12:28:46.938Z,803.00
2023-01-26T12:29:46.958Z,801.00
2023-01-26T12:30:47.011Z,803.00
2023-01-26T12:31:46.930Z,802.00
2023-01-26T12:32:46.915Z,798.00
2023-01-26T12:33:46.913Z,792.00
2023-01-26T12:34:46.921Z,784.00
2023-01-26T12:35:46.886Z,777.00
2023-01-26T12:36:46.871Z,769.00
2023-01-26T12:37:46.855Z,762.00
2023-01-26T12:38:46.850Z,756.00
2023-01-26T12:39:46.857Z,750.00
2023-01-26T12:40:46.860Z,743.00
2023-01-26T12:41:46.861Z,737.00
2023-01-26T12:42:46.824Z,733.00
2023-01-26T12:43:46.847Z,730.00
2023-01-26T12:44:46.828Z,726.00
2023-01-26T12:45:46.800Z,719.00
2023-01-26T12:46:46.833Z,715.00
2023-01-26T12:47:46.801Z,714.00
2023-01-26T12:48:46.809Z,712.00
2023-01-26T12:49:46.884Z,707.00
2023-01-26T12:50:46.822Z,703.00
2023-01-26T12:51:46.784Z,700.00
2023-01-26T12:52:46.807Z,694.00
2023-01-26T12:53:46.771Z,692.00
2023-01-26T12:54:46.752Z,688.00
2023-01-26T12:55:46.845Z,686.00
2023-01-26T12:56:46.734Z,680.00
2023-01-26T12:57:46.761Z,678.00
2023-01-26T12:58:46.709Z,678.00
2023-01-26T12:59:48.886Z,687.00
2023-01-26T13:00:46.758Z,694.00
2023-01-26T13:01:46.759Z,695.00
2023-01-26T13:02:46.799Z,692.00
2023-01-26T13:03:46.742Z,689.00
2023-01-26T13:04:49.091Z,688.00
2023-01-26T13:05:46.885Z,683.00
2023-01-26T13:06:46.873Z,680.00
2023-01-26T13:07:46.882Z,673.00
2023-01-26T13:08:46.870Z,671.00
2023-01-26T13:09:46.859Z,671.00
2023-01-26T13:10:46.808Z,668.00
2023-01-26T13:11:46.804Z,670.00
2023-01-26T13:12:46.817Z,670.00
2023-01-26T13:13:46.862Z,666.00
2023-01-26T13:14:46.976Z,662.00
2023-01-26T13:15:46.983Z,660.00
2023-01-26T13:16:46.983Z,660.00
2023-01-26T13:17:47.061Z,660.00
2023-01-26T13:18:47.163Z,659.00
2023-01-26T13:19:47.100Z,659.00
2023-01-26T13:20:47.194Z,655.00
2023-01-26T13:21:47.160Z,653.00
2023-01-26T13:22:47.235Z,654.00
2023-01-26T13:23:47.276Z,652.00
2023-01-26T13:24:47.297Z,649.00
2023-01-26T13:25:47.299Z,646.00
2023-01-26T13:26:47.341Z,641.00
2023-01-26T13:27:47.365Z,639.00
2023-01-26T13:28:47.391Z,640.00
2023-01-26T13:29:47.417Z,638.00
2023-01-26T13:30:47.504Z,635.00
2023-01-26T13:31:47.568Z,636.00
2023-01-26T13:32:47.452Z,638.00
2023-01-26T13:33:47.520Z,637.00
2023-01-26T13:34:47.506Z,635.00
2023-01-26T13:35:47.545Z,639.00
2023-01-26T13:36:47.594Z,640.00
2023-01-26T13:37:47.597Z,642.00
2023-01-26T13:38:47.726Z,641.00
2023-01-26T13:39:47.670Z,641.00
2023-01-26T13:40:47.726Z,639.00
2023-01-26T13:41:47.772Z,642.00
2023-01-26T13:42:47.883Z,641.00
2023-01-26T13:43:47.850Z,642.00
2023-01-26T13:44:47.827Z,642.00
2023-01-26T13:45:47.925Z,646.00
2023-01-26T13:46:47.950Z,649.00
2023-01-26T13:47:47.920Z,649.00
2023-01-26T13:48:47.959Z,651.00
2023-01-26T13:49:47.957Z,648.00
2023-01-26T13:50:47.992Z,648.00
2023-01-26T13:51:48.017Z,649.00
2023-01-26T13:52:48.091Z,647.00
2023-01-26T13:53:48.109Z,646.00
2023-01-26T13:54:48.128Z,646.00
2023-01-26T13:55:48.152Z,645.00
2023-01-26T13:56:48.220Z,645.00
2023-01-26T13:57:48.241Z,645.00
2023-01-26T13:58:48.235Z,641.00
2023-01-26T13:59:48.257Z,641.00
2023-01-26T14:00:48.341Z,643.00
2023-01-26T14:01:48.517Z,644.00
2023-01-26T14:02:48.415Z,644.00
2023-01-26T14:03:48.366Z,645.00
2023-01-26T14:04:48.362Z,644.00
2023-01-26T14:05:48.391Z,642.00
2023-01-26T14:06:48.439Z,643.00
2023-01-26T14:07:48.384Z,646.00
2023-01-26T14:08:48.393Z,646.00
2023-01-26T14:09:48.386Z,646.00
2023-01-26T14:10:48.421Z,645.00
2023-01-26T14:11:48.478Z,647.00
2023-01-26T14:12:48.472Z,642.00
2023-01-26T14:13:48.481Z,641.00
2023-01-26T14:14:49.411Z,642.00
2023-01-26T14:15:48.425Z,642.00
2023-01-26T14:16:48.396Z,642.00
2023-01-26T14:17:48.349Z,639.00
2023-01-26T14:18:48.314Z,639.00
2023-01-26T14:19:48.265Z,638.00
2023-01-26T14:20:48.229Z,634.00
2023-01-26T14:21:48.216Z,632.00
2023-01-26T14:22:48.232Z,628.00
2023-01-26T14:23:48.309Z,627.00
2023-01-26T14:24:48.291Z,628.00
2023-01-26T14:25:48.364Z,630.00
2023-01-26T14:26:48.395Z,626.00
2023-01-26T14:27:48.403Z,626.00
2023-01-26T14:28:48.486Z,624.00
2023-01-26T14:29:48.495Z,623.00
2023-01-26T14:30:48.625Z,623.00
2023-01-26T14:31:48.635Z,625.00
2023-01-26T14:32:48.543Z,622.00
2023-01-26T14:33:48.545Z,620.00
2023-01-26T14:34:48.505Z,620.00
2023-01-26T14:35:48.522Z,620.00
2023-01-26T14:36:48.531Z,617.00
2023-01-26T14:37:48.498Z,616.00
2023-01-26T14:38:48.487Z,616.00
2023-01-26T14:39:48.496Z,615.00
2023-01-26T14:40:48.468Z,613.00
2023-01-26T14:41:48.442Z,613.00
2023-01-26T14:42:48.463Z,616.00
2023-01-26T14:43:48.405Z,616.00
2023-01-26T14:44:48.424Z,615.00
2023-01-26T14:45:48.380Z,615.00
2023-01-26T14:46:48.425Z,615.00
2023-01-26T14:47:48.399Z,614.00
2023-01-26T14:48:48.343Z,615.00
2023-01-26T14:49:48.319Z,614.00
2023-01-26T14:50:48.314Z,615.00
2023-01-26T14:51:48.322Z,615.00
2023-01-26T14:52:48.273Z,614.00
2023-01-26T14:53:48.321Z,615.00
2023-01-26T14:54:48.256Z,612.00
2023-01-26T14:55:48.239Z,611.00
2023-01-26T14:56:48.247Z,608.00
2023-01-26T14:57:48.252Z,610.00
2023-01-26T14:58:48.201Z,610.00
2023-01-26T14:59:48.206Z,610.00
2023-01-26T15:00:48.278Z,610.00
2023-01-26T15:01:48.250Z,610.00
2023-01-26T15:02:48.179Z,609.00
2023-01-26T15:03:48.200Z,611.00
2023-01-26T15:04:48.184Z,609.00
2023-01-26T15:05:48.191Z,607.00
2023-01-26T15:06:48.181Z,608.00
2023-01-26T15:07:48.157Z,606.00
2023-01-26T15:08:48.208Z,605.00
2023-01-26T15:09:48.130Z,604.00
2023-01-26T15:10:48.119Z,607.00
2023-01-26T15:11:48.118Z,606.00
2023-01-26T15:12:48.082Z,607.00
2023-01-26T15:13:48.065Z,605.00
2023-01-26T15:14:48.055Z,604.00
2023-01-26T15:15:48.092Z,603.00
2023-01-26T15:16:48.033Z,600.00
2023-01-26T15:17:48.033Z,600.00
2023-01-26T15:18:48.034Z,599.00
2023-01-26T15:19:48.003Z,601.00
2023-01-26T15:20:48.004Z,601.00
2023-01-26T15:21:48.006Z,601.00
2023-01-26T15:22:48.024Z,599.00
2023-01-26T15:23:48.136Z,598.00
2023-01-26T15:24:48.013Z,599.00
2023-01-26T15:25:48.013Z,599.00
2023-01-26T15:26:48.001Z,597.00
2023-01-26T15:27:48.022Z,596.00
2023-01-26T15:28:48.039Z,591.00
2023-01-26T15:29:48.004Z,591.00
2023-01-26T15:30:48.062Z,591.00
2023-01-26T15:31:48.017Z,589.00
2023-01-26T15:32:47.999Z,587.00
2023-01-26T15:33:48.067Z,585.00
2023-01-26T15:34:47.993Z,585.00
2023-01-26T15:35:48.000Z,584.00
2023-01-26T15:36:48.005Z,583.00
2023-01-26T15:37:47.956Z,583.00
2023-01-26T15:38:47.946Z,583.00
2023-01-26T15:39:47.942Z,583.00
2023-01-26T15:40:47.942Z,582.00
2023-01-26T15:41:47.930Z,582.00
2023-01-26T15:42:47.935Z,577.00
2023-01-26T15:43:47.921Z,577.00
2023-01-26T15:44:47.943Z,576.00
2023-01-26T15:45:47.944Z,575.00
2023-01-26T15:46:47.934Z,574.00
2023-01-26T15:47:47.928Z,571.00
2023-01-26T15:48:47.922Z,568.00
2023-01-26T15:49:47.903Z,568.00
2023-01-26T15:50:47.904Z,568.00
2023-01-26T15:51:47.908Z,568.00
2023-01-26T15:52:47.922Z,567.00
2023-01-26T15:56:16.075Z,564.00
2023-01-26T15:56:40.370Z,563.00
2023-01-26T15:57:40.387Z,564.00
2023-01-26T15:58:40.340Z,567.00
2023-01-26T15:59:40.317Z,570.00
2023-01-26T16:04:17.973Z,564.00
2023-01-26T16:28:16.510Z,541.00
2023-01-26T16:29:16.997Z,540.00
2023-01-26T16:30:18.503Z,540.00
2023-01-26T16:31:15.541Z,538.00
2023-01-26T16:33:16.986Z,539.00
2023-01-26T16:34:16.984Z,540.00
2023-01-26T16:36:16.220Z,543.00
2023-01-26T16:37:15.178Z,544.00
2023-01-26T16:39:15.140Z,546.00
2023-01-26T16:40:16.520Z,548.00
2023-01-26T16:48:16.491Z,539.00
2023-01-26T17:03:04.700Z,534.00
